createdAt,value
2022-08-12T00:00:19.133Z,53.90
2022-08-12T00:03:04.297Z,53.90
2022-08-12T00:06:01.765Z,54.00
2022-08-12T00:08:51.673Z,54.10
2022-08-12T00:11:37.666Z,54.30
2022-08-12T00:14:23.152Z,54.30
2022-08-12T00:17:09.806Z,54.40
2022-08-12T00:19:55.585Z,54.30
2022-08-12T00:22:41.737Z,54.40
2022-08-12T00:26:01.416Z,54.60
2022-08-12T00:28:33.646Z,54.60
2022-08-12T00:31:19.726Z,54.70
2022-08-12T00:34:06.333Z,54.80
2022-08-12T00:36:52.199Z,54.80
2022-08-12T00:39:37.518Z,54.90
2022-08-12T00:42:11.014Z,55.00
2022-08-12T00:44:40.488Z,55.00
2022-08-12T00:47:25.679Z,55.00
2022-08-12T00:49:57.226Z,55.10
2022-08-12T00:52:25.935Z,55.20
2022-08-12T00:54:56.917Z,55.20
2022-08-12T00:57:26.657Z,55.30
2022-08-12T00:59:56.976Z,55.30
2022-08-12T01:02:27.969Z,55.40
2022-08-12T01:05:19.991Z,55.40
2022-08-12T01:08:06.665Z,55.50
2022-08-12T01:10:55.033Z,55.50
2022-08-12T01:13:23.256Z,55.60
2022-08-12T01:15:52.916Z,55.60
2022-08-12T01:18:21.700Z,55.60
2022-08-12T01:21:01.838Z,55.70
2022-08-12T01:23:50.090Z,55.70
2022-08-12T01:26:21.184Z,55.80
2022-08-12T01:28:50.982Z,55.80
2022-08-12T01:31:20.804Z,55.90
2022-08-12T01:34:00.645Z,56.50
2022-08-12T01:36:30.889Z,55.90
2022-08-12T01:39:00.123Z,56.00
2022-08-12T01:41:31.946Z,56.00
2022-08-12T01:44:02.211Z,56.10
2022-08-12T01:46:44.697Z,56.10
2022-08-12T01:49:37.088Z,56.10
2022-08-12T01:52:21.067Z,56.10
2022-08-12T01:54:52.687Z,56.20
2022-08-12T01:57:59.618Z,56.20
2022-08-12T02:00:19.207Z,56.20
2022-08-12T02:02:54.237Z,56.20
2022-08-12T02:05:50.117Z,56.40
2022-08-12T02:08:45.354Z,56.50
2022-08-12T02:11:19.402Z,56.50
2022-08-12T02:14:02.085Z,56.50
2022-08-12T02:17:00.441Z,56.50
2022-08-12T02:19:43.235Z,56.60
2022-08-12T02:22:27.452Z,56.70
2022-08-12T02:25:02.381Z,56.70
2022-08-12T02:27:35.882Z,56.70
2022-08-12T02:30:08.776Z,56.80
2022-08-12T02:32:41.035Z,56.80
2022-08-12T02:35:11.408Z,56.80
2022-08-12T02:37:41.136Z,56.90
2022-08-12T02:40:12.363Z,56.90
2022-08-12T02:42:51.126Z,57.00
2022-08-12T02:45:26.897Z,57.00
2022-08-12T02:48:01.099Z,57.00
2022-08-12T02:50:32.402Z,57.00
2022-08-12T02:53:01.368Z,57.10
2022-08-12T02:55:34.888Z,57.60
2022-08-12T02:58:09.018Z,57.10
2022-08-12T03:00:43.112Z,57.10
2022-08-12T03:03:14.012Z,57.10
2022-08-12T03:05:49.531Z,57.30
2022-08-12T03:08:31.879Z,57.30
2022-08-12T03:11:04.770Z,57.90
2022-08-12T03:13:40.265Z,57.40
2022-08-12T03:16:09.815Z,57.50
2022-08-12T03:18:38.489Z,57.60
2022-08-12T03:21:07.413Z,57.70
2022-08-12T03:23:37.357Z,57.60
2022-08-12T03:26:05.571Z,57.80
2022-08-12T03:28:56.463Z,57.80
2022-08-12T03:31:29.621Z,57.90
2022-08-12T03:34:03.121Z,57.90
2022-08-12T03:36:35.056Z,58.00
2022-08-12T03:39:23.571Z,58.00
2022-08-12T03:42:12.699Z,58.10
2022-08-12T03:45:05.304Z,58.10
2022-08-12T03:47:56.801Z,58.10
2022-08-12T03:50:45.432Z,58.10
2022-08-12T03:53:30.602Z,58.40
2022-08-12T03:56:15.750Z,58.40
2022-08-12T03:59:01.221Z,58.60
2022-08-12T04:01:29.321Z,58.60
2022-08-12T04:03:59.392Z,59.20
2022-08-12T04:06:34.942Z,58.70
2022-08-12T04:09:16.446Z,58.50
2022-08-12T04:12:03.771Z,58.70
2022-08-12T04:14:32.644Z,58.80
2022-08-12T04:17:01.312Z,58.80
2022-08-12T04:19:30.854Z,58.80
2022-08-12T04:22:01.791Z,58.80
2022-08-12T04:24:34.532Z,58.70
2022-08-12T04:27:03.339Z,58.90
2022-08-12T04:30:29.981Z,58.90
2022-08-12T04:32:19.153Z,58.90
2022-08-12T04:34:48.404Z,59.00
2022-08-12T04:37:16.944Z,59.10
2022-08-12T04:39:45.868Z,59.00
2022-08-12T04:42:14.143Z,59.10
2022-08-12T04:44:43.240Z,59.00
2022-08-12T04:47:14.051Z,59.10
2022-08-12T04:49:44.648Z,59.20
2022-08-12T04:52:13.868Z,59.30
2022-08-12T04:54:43.734Z,59.30
2022-08-12T04:57:11.670Z,59.50
2022-08-12T04:59:47.978Z,59.50
2022-08-12T05:02:20.970Z,59.60
2022-08-12T05:04:51.997Z,59.60
2022-08-12T05:07:24.098Z,59.70
2022-08-12T05:10:00.481Z,59.70
2022-08-12T05:12:35.977Z,59.80
2022-08-12T05:15:19.242Z,59.90
2022-08-12T05:17:52.769Z,59.90
2022-08-12T05:20:22.306Z,60.00
2022-08-12T05:22:53.119Z,60.20
2022-08-12T05:25:25.716Z,60.20
2022-08-12T05:27:58.118Z,60.40
2022-08-12T05:30:26.845Z,60.50
2022-08-12T05:32:55.663Z,60.60
2022-08-12T05:35:30.836Z,60.50
2022-08-12T05:38:27.219Z,61.20
2022-08-12T05:40:55.565Z,60.60
2022-08-12T05:43:24.045Z,60.40
2022-08-12T05:45:52.224Z,60.30
2022-08-12T05:48:24.355Z,60.30
2022-08-12T05:50:54.012Z,60.20
2022-08-12T05:53:23.829Z,60.00
2022-08-12T05:55:54.176Z,60.00
2022-08-12T05:58:22.088Z,59.90
2022-08-12T06:00:49.894Z,59.90
2022-08-12T06:03:19.696Z,60.00
2022-08-12T06:05:55.048Z,59.80
2022-08-12T06:08:25.756Z,59.70
2022-08-12T06:10:53.870Z,59.50
2022-08-12T06:13:28.713Z,59.40
2022-08-12T06:16:10.700Z,59.30
2022-08-12T06:18:40.346Z,59.10
2022-08-12T06:21:09.082Z,59.00
2022-08-12T06:23:42.810Z,59.00
2022-08-12T06:26:12.851Z,58.90
2022-08-12T06:28:41.370Z,58.90
2022-08-12T06:31:26.675Z,58.90
2022-08-12T06:34:00.578Z,58.90
2022-08-12T06:36:43.270Z,58.70
2022-08-12T06:39:14.590Z,58.70
2022-08-12T06:42:30.812Z,58.60
2022-08-12T06:44:50.889Z,58.60
2022-08-12T06:47:22.004Z,58.60
2022-08-12T06:49:50.071Z,58.60
2022-08-12T06:52:21.884Z,58.50
2022-08-12T06:54:53.430Z,58.40
2022-08-12T06:58:01.730Z,58.40
2022-08-12T07:00:11.343Z,58.50
2022-08-12T07:02:39.277Z,58.40
2022-08-12T07:05:07.605Z,58.30
2022-08-12T07:07:38.919Z,58.20
2022-08-12T07:10:08.995Z,58.20
2022-08-12T07:12:37.234Z,58.10
2022-08-12T07:15:06.057Z,58.10
2022-08-12T07:17:37.305Z,58.00
2022-08-12T07:20:09.884Z,57.90
2022-08-12T07:22:39.592Z,57.80
2022-08-12T07:25:27.338Z,57.80
2022-08-12T07:27:55.358Z,57.70
2022-08-12T07:30:23.813Z,57.60
2022-08-12T07:32:52.223Z,57.50
2022-08-12T07:35:20.615Z,57.40
2022-08-12T07:37:50.799Z,57.40
2022-08-12T07:40:21.230Z,57.20
2022-08-12T07:42:49.505Z,57.30
2022-08-12T07:45:17.759Z,57.10
2022-08-12T07:47:45.582Z,56.90
2022-08-12T07:50:16.168Z,56.80
2022-08-12T07:52:48.364Z,56.60
2022-08-12T07:55:18.656Z,56.50
2022-08-12T07:57:55.739Z,56.40
2022-08-12T08:00:23.679Z,56.30
2022-08-12T08:02:54.368Z,56.30
2022-08-12T08:05:24.601Z,56.10
2022-08-12T08:07:53.406Z,55.90
2022-08-12T08:10:21.335Z,55.90
2022-08-12T08:12:53.909Z,55.70
2022-08-12T08:15:44.421Z,55.60
2022-08-12T08:18:25.561Z,55.60
2022-08-12T08:20:55.626Z,55.50
2022-08-12T08:23:43.685Z,55.50
2022-08-12T08:26:15.520Z,56.00
2022-08-12T08:28:43.899Z,55.40
2022-08-12T08:31:14.169Z,55.30
2022-08-12T08:34:05.071Z,55.20
2022-08-12T08:36:30.430Z,55.10
2022-08-12T08:38:58.866Z,54.90
2022-08-12T08:42:17.366Z,54.90
2022-08-12T08:44:32.653Z,54.70
2022-08-12T08:47:03.357Z,54.50
2022-08-12T08:49:31.207Z,54.50
2022-08-12T08:51:59.073Z,54.30
2022-08-12T08:54:27.501Z,54.30
2022-08-12T08:56:55.637Z,54.20
2022-08-12T08:59:23.428Z,54.00
2022-08-12T09:05:12.845Z,53.80
2022-08-12T09:07:51.906Z,53.60
2022-08-12T09:10:31.357Z,53.70
2022-08-12T09:13:23.167Z,53.50
2022-08-12T09:15:55.912Z,53.10
2022-08-12T09:18:33.205Z,53.10
2022-08-12T09:21:04.019Z,53.00
2022-08-12T09:26:22.794Z,52.80
2022-08-12T09:28:57.085Z,52.70
2022-08-12T09:32:06.579Z,52.30
2022-08-12T09:34:28.172Z,52.50
2022-08-12T09:37:18.850Z,52.50
2022-08-12T09:40:03.266Z,52.30
2022-08-12T09:43:11.655Z,51.80
2022-08-12T09:46:11.879Z,51.60
2022-08-12T09:48:39.928Z,51.70
2022-08-12T09:51:16.951Z,51.40
2022-08-12T09:54:08.976Z,51.40
2022-08-12T09:56:59.171Z,51.20
2022-08-12T10:00:12.549Z,51.30
2022-08-12T10:02:44.194Z,51.10
2022-08-12T10:05:04.254Z,51.10
2022-08-12T10:07:40.425Z,51.00
2022-08-12T10:10:25.104Z,51.10
2022-08-12T10:13:35.547Z,50.90
2022-08-12T10:16:04.657Z,50.60
2022-08-12T10:18:35.681Z,50.40
2022-08-12T10:21:07.275Z,50.00
2022-08-12T10:23:40.225Z,50.10
2022-08-12T10:26:37.944Z,50.00
2022-08-12T10:30:37.472Z,50.30
2022-08-12T10:32:44.719Z,50.00
2022-08-12T10:35:10.152Z,49.60
2022-08-12T10:38:37.088Z,49.30
2022-08-12T10:40:31.402Z,49.40
2022-08-12T10:43:19.626Z,49.30
2022-08-12T10:45:49.574Z,49.30
2022-08-12T10:48:26.935Z,49.00
2022-08-12T10:51:04.184Z,48.40
2022-08-12T10:53:54.175Z,48.10
2022-08-12T10:56:34.947Z,48.30
2022-08-12T10:59:10.751Z,48.50
2022-08-12T11:04:19.202Z,48.70
2022-08-12T11:04:39.432Z,48.70
2022-08-12T11:08:35.166Z,48.80
2022-08-12T11:10:02.465Z,48.40
2022-08-12T11:12:57.026Z,48.20
2022-08-12T11:15:33.314Z,47.80
2022-08-12T11:18:12.002Z,47.60
2022-08-12T11:20:47.395Z,47.60
2022-08-12T11:23:25.278Z,47.30
2022-08-12T11:26:05.918Z,47.40
2022-08-12T11:28:36.913Z,47.50
2022-08-12T11:31:09.824Z,47.10
2022-08-12T11:34:05.620Z,46.80
2022-08-12T11:36:28.697Z,46.90
2022-08-12T11:38:57.638Z,46.80
2022-08-12T11:41:31.435Z,46.40
2022-08-12T11:44:01.983Z,46.30
2022-08-12T11:46:51.454Z,46.30
2022-08-12T11:49:31.553Z,46.30
2022-08-12T11:52:01.578Z,46.10
2022-08-12T11:54:30.205Z,46.20
2022-08-12T11:56:59.665Z,45.40
2022-08-12T12:02:20.807Z,45.90
2022-08-12T12:04:53.100Z,45.90
2022-08-12T12:08:36.674Z,45.90
2022-08-12T12:10:12.163Z,45.90
2022-08-12T12:12:50.191Z,45.80
2022-08-12T12:15:25.075Z,45.20
2022-08-12T12:18:06.521Z,45.40
2022-08-12T12:20:35.790Z,45.60
2022-08-12T12:23:04.092Z,45.60
2022-08-12T12:25:59.506Z,45.50
2022-08-12T12:28:19.991Z,45.20
2022-08-12T12:31:15.162Z,45.50
2022-08-12T12:33:57.902Z,45.10
2022-08-12T12:36:30.129Z,45.00
2022-08-12T12:38:59.900Z,45.20
2022-08-12T12:42:41.863Z,44.30
2022-08-12T12:44:25.484Z,45.00
2022-08-12T12:46:54.829Z,45.20
2022-08-12T12:49:26.448Z,44.80
2022-08-12T12:52:19.250Z,44.80
2022-08-12T12:54:52.474Z,44.60
2022-08-12T12:57:35.907Z,44.80
2022-08-12T13:00:15.749Z,44.90
2022-08-12T13:02:45.846Z,44.60
2022-08-12T13:05:27.736Z,44.20
2022-08-12T13:08:00.644Z,44.30
2022-08-12T13:10:32.118Z,44.40
2022-08-12T13:14:06.948Z,44.60
2022-08-12T13:15:59.016Z,44.30
2022-08-12T13:18:31.419Z,44.10
2022-08-12T13:21:02.109Z,43.80
2022-08-12T13:23:36.057Z,44.80
2022-08-12T13:26:05.492Z,44.30
2022-08-12T13:28:33.257Z,44.10
2022-08-12T13:31:02.985Z,44.30
2022-08-12T13:34:33.517Z,44.30
2022-08-12T13:36:21.942Z,44.40
2022-08-12T13:38:54.214Z,44.60
2022-08-12T13:41:33.552Z,44.30
2022-08-12T13:44:01.810Z,43.60
2022-08-12T13:46:29.628Z,43.40
2022-08-12T13:48:57.549Z,43.70
2022-08-12T13:51:27.001Z,44.00
2022-08-12T13:54:11.624Z,44.20
2022-08-12T13:56:41.801Z,44.20
2022-08-12T13:59:18.315Z,44.30
2022-08-12T14:01:54.435Z,44.30
2022-08-12T14:04:24.900Z,44.10
2022-08-12T14:06:54.071Z,43.50
2022-08-12T14:09:21.989Z,41.90
2022-08-12T14:11:59.497Z,42.10
2022-08-12T14:14:31.671Z,43.40
2022-08-12T14:17:05.176Z,43.60
2022-08-12T14:19:36.007Z,43.00
2022-08-12T14:22:10.549Z,43.20
2022-08-12T14:24:40.304Z,43.80
2022-08-12T14:27:10.385Z,43.70
2022-08-12T14:30:06.253Z,43.50
2022-08-12T14:32:34.970Z,42.00
2022-08-12T14:35:03.876Z,43.20
2022-08-12T14:37:56.508Z,42.80
2022-08-12T14:40:22.783Z,42.80
2022-08-12T14:42:55.404Z,42.00
2022-08-12T14:45:45.197Z,42.20
2022-08-12T14:48:14.826Z,41.70
2022-08-12T14:52:10.741Z,41.60
2022-08-12T14:59:55.683Z,42.60
2022-08-12T15:02:20.436Z,42.70
2022-08-12T15:04:50.998Z,42.50
2022-08-12T15:07:34.205Z,42.50
2022-08-12T15:10:09.248Z,42.80
2022-08-12T15:12:40.652Z,41.80
2022-08-12T15:15:11.401Z,42.90
2022-08-12T15:17:41.178Z,42.40
2022-08-12T15:20:33.261Z,42.20
2022-08-12T15:22:57.861Z,41.80
2022-08-12T15:25:27.299Z,41.60
2022-08-12T15:28:04.031Z,42.00
2022-08-12T15:30:34.568Z,40.50
2022-08-12T15:33:12.927Z,41.30
2022-08-12T15:35:52.801Z,41.10
2022-08-12T15:38:25.090Z,41.00
2022-08-12T15:40:59.024Z,41.30
2022-08-12T15:44:15.663Z,41.90
2022-08-12T15:46:17.812Z,41.90
2022-08-12T15:48:53.576Z,41.40
2022-08-12T15:51:59.946Z,41.50
2022-08-12T15:54:33.521Z,40.60
2022-08-12T15:57:07.711Z,41.00
2022-08-12T15:59:51.159Z,40.50
2022-08-12T16:02:27.066Z,41.00
2022-08-12T16:04:57.103Z,41.10
2022-08-12T16:07:26.228Z,40.40
2022-08-12T16:10:04.794Z,40.70
2022-08-12T16:12:42.072Z,40.90
2022-08-12T16:15:13.655Z,41.20
2022-08-12T16:18:18.677Z,41.20
2022-08-12T16:20:33.452Z,41.40
2022-08-12T16:23:35.975Z,40.90
2022-08-12T16:26:05.665Z,41.40
2022-08-12T16:28:36.109Z,41.50
2022-08-12T16:31:04.705Z,40.90
2022-08-12T16:33:36.032Z,41.40
2022-08-12T16:36:25.377Z,41.80
2022-08-12T16:38:53.249Z,41.40
2022-08-12T16:41:22.653Z,41.80
2022-08-12T16:43:53.336Z,42.10
2022-08-12T16:46:32.237Z,42.10
2022-08-12T16:49:09.060Z,42.30
2022-08-12T16:51:46.751Z,42.30
2022-08-12T16:54:17.021Z,42.00
2022-08-12T16:56:54.720Z,41.40
2022-08-12T16:59:31.039Z,42.20
2022-08-12T17:02:31.915Z,42.40
2022-08-12T17:05:03.334Z,42.30
2022-08-12T17:07:36.910Z,42.10
2022-08-12T17:10:07.213Z,42.50
2022-08-12T17:12:37.307Z,42.40
2022-08-12T17:15:51.366Z,42.60
2022-08-12T17:18:39.131Z,42.50
2022-08-12T17:20:49.042Z,42.70
2022-08-12T17:23:20.205Z,42.60
2022-08-12T17:25:55.624Z,42.80
2022-08-12T17:28:25.310Z,43.00
2022-08-12T17:30:59.544Z,43.00
2022-08-12T17:33:33.899Z,43.00
2022-08-12T17:36:05.376Z,43.20
2022-08-12T17:38:34.587Z,43.30
2022-08-12T17:41:22.230Z,43.30
2022-08-12T17:43:58.583Z,43.10
2022-08-12T17:46:33.518Z,43.40
2022-08-12T17:49:06.906Z,43.40
2022-08-12T17:51:51.016Z,43.50
2022-08-12T17:54:31.560Z,43.70
2022-08-12T17:57:01.720Z,43.70
2022-08-12T17:59:47.965Z,43.80
2022-08-12T18:02:25.538Z,43.80
2022-08-12T18:05:09.657Z,43.80
2022-08-12T18:07:39.567Z,44.00
2022-08-12T18:10:08.533Z,44.00
2022-08-12T18:12:40.129Z,44.20
2022-08-12T18:15:26.762Z,44.10
2022-08-12T18:18:02.360Z,44.30
2022-08-12T18:20:36.439Z,44.30
2022-08-12T18:23:05.241Z,44.30
2022-08-12T18:26:12.517Z,44.40
2022-08-12T18:28:43.023Z,44.40
2022-08-12T18:31:13.725Z,44.40
2022-08-12T18:33:46.026Z,44.40
2022-08-12T18:36:14.746Z,44.60
2022-08-12T18:38:53.073Z,44.60
2022-08-12T18:41:33.736Z,44.60
2022-08-12T18:44:07.985Z,44.80
2022-08-12T18:46:47.031Z,44.80
2022-08-12T18:49:23.623Z,44.90
2022-08-12T18:52:02.286Z,44.90
2022-08-12T18:54:34.864Z,45.00
2022-08-12T18:57:16.151Z,45.00
2022-08-12T19:00:02.236Z,45.00
2022-08-12T19:02:39.665Z,45.10
2022-08-12T19:05:12.362Z,45.10
2022-08-12T19:07:58.182Z,45.20
2022-08-12T19:10:30.053Z,45.20
2022-08-12T19:13:23.114Z,45.30
2022-08-12T19:15:53.171Z,45.40
2022-08-12T19:18:21.947Z,45.30
2022-08-12T19:20:51.306Z,45.40
2022-08-12T19:23:20.929Z,45.40
2022-08-12T19:26:00.636Z,45.50
2022-08-12T19:28:34.353Z,45.50
2022-08-12T19:31:56.177Z,45.60
2022-08-12T19:37:17.936Z,45.60
2022-08-12T19:40:10.317Z,45.70
2022-08-12T19:42:36.167Z,45.80
2022-08-12T19:45:13.256Z,46.00
2022-08-12T19:47:43.372Z,46.10
2022-08-12T19:50:12.064Z,46.10
2022-08-12T19:52:42.570Z,46.40
2022-08-12T19:55:19.900Z,46.40
2022-08-12T19:58:01.277Z,46.50
2022-08-12T20:00:30.752Z,46.50
2022-08-12T20:03:00.835Z,46.50
2022-08-12T20:06:04.989Z,46.60
2022-08-12T20:08:31.688Z,46.60
2022-08-12T20:12:09.071Z,46.60
2022-08-12T20:14:00.384Z,46.60
2022-08-12T20:16:52.081Z,46.70
2022-08-12T20:19:23.645Z,46.80
2022-08-12T20:21:51.723Z,47.00
2022-08-12T20:24:24.187Z,47.10
2022-08-12T20:26:59.393Z,47.10
2022-08-12T20:29:35.605Z,47.20
2022-08-12T20:32:05.881Z,47.20
2022-08-12T20:34:38.913Z,47.30
2022-08-12T20:37:07.049Z,47.30
2022-08-12T20:39:56.634Z,47.40
2022-08-12T20:42:25.281Z,47.40
2022-08-12T20:44:59.509Z,47.50
2022-08-12T20:47:27.337Z,47.60
2022-08-12T20:50:14.373Z,47.50
2022-08-12T20:52:46.069Z,47.60
2022-08-12T20:55:19.312Z,47.50
2022-08-12T20:58:02.136Z,47.50
2022-08-12T21:00:35.066Z,47.60
2022-08-12T21:03:18.051Z,47.50
2022-08-12T21:06:12.668Z,47.50
2022-08-12T21:08:42.628Z,47.50
2022-08-12T21:11:22.161Z,47.50
2022-08-12T21:13:52.251Z,47.50
2022-08-12T21:16:31.478Z,47.60
2022-08-12T21:19:07.977Z,47.50
2022-08-12T21:21:47.095Z,47.60
2022-08-12T21:24:18.298Z,47.70
2022-08-12T21:26:53.461Z,47.60
2022-08-12T21:29:22.749Z,47.70
2022-08-12T21:32:39.258Z,47.70
2022-08-12T21:34:39.668Z,47.70
2022-08-12T21:37:13.258Z,47.80
2022-08-12T21:39:57.700Z,47.70
2022-08-12T21:42:27.731Z,47.70
2022-08-12T21:44:59.180Z,47.70
2022-08-12T21:47:53.246Z,47.70
2022-08-12T21:50:21.277Z,47.80
2022-08-12T21:52:50.158Z,47.80
2022-08-12T21:55:20.234Z,47.70
2022-08-12T21:57:54.850Z,47.70
2022-08-12T22:00:34.343Z,47.80
2022-08-12T22:04:01.698Z,47.80
2022-08-12T22:06:30.547Z,47.80
2022-08-12T22:09:03.445Z,47.80
2022-08-12T22:11:41.601Z,47.90
2022-08-12T22:14:21.904Z,47.90
2022-08-12T22:16:53.909Z,47.80
2022-08-12T22:19:22.882Z,47.90
2022-08-12T22:21:53.818Z,48.00
2022-08-12T22:24:25.722Z,48.00
2022-08-12T22:26:56.476Z,48.10
2022-08-12T22:29:52.202Z,48.10
2022-08-12T22:32:20.352Z,48.00
2022-08-12T22:35:08.473Z,48.10
2022-08-12T22:37:39.016Z,48.10
2022-08-12T22:40:08.094Z,48.10
2022-08-12T22:42:53.652Z,48.10
2022-08-12T22:45:48.460Z,48.10
2022-08-12T22:48:26.863Z,48.20
2022-08-12T22:50:59.133Z,48.30
2022-08-12T22:53:36.437Z,48.30
2022-08-12T22:56:07.137Z,48.30
2022-08-12T22:58:40.633Z,48.40
2022-08-12T23:01:21.255Z,48.50
2022-08-12T23:04:00.292Z,48.40
2022-08-12T23:06:30.687Z,48.50
2022-08-12T23:08:59.739Z,48.50
2022-08-12T23:11:33.643Z,48.60
2022-08-12T23:14:04.250Z,48.60
2022-08-12T23:16:34.330Z,48.60
2022-08-12T23:19:09.609Z,48.60
2022-08-12T23:21:40.434Z,48.70
2022-08-12T23:24:29.147Z,48.70
2022-08-12T23:27:11.036Z,48.70
2022-08-12T23:29:43.948Z,48.80
2022-08-12T23:32:36.060Z,48.80
2022-08-12T23:35:22.397Z,48.90
2022-08-12T23:37:53.846Z,48.90
2022-08-12T23:40:25.834Z,48.90
2022-08-12T23:42:55.167Z,49.00
2022-08-12T23:45:33.803Z,49.00
2022-08-12T23:48:05.718Z,49.00
2022-08-12T23:50:35.102Z,49.00
2022-08-12T23:53:06.411Z,49.00
2022-08-12T23:55:42.086Z,49.10
2022-08-12T23:58:21.747Z,49.10
